Time;durP1;ratioP1;P1;durP2;ratioP2;P2;SDS_P1;SDS_P2;PMS_P1;PMS_P2;Temp;Humidity;BMP_temperature;BMP_pressure;BME280_temperature;BME280_humidity;BME280_pressure;Samples;Min_cycle;Max_cycle;Signal;HPM_P1;HPM_P2
2023/08/01 00:02:17;;;;;;;25.37;11.77;;;;;;;15.26;100.00;99819.00;4937006;29;20503;-90
2023/08/01 00:04:43;;;;;;;26.70;12.23;;;;;;;15.25;100.00;99812.03;4936862;29;20421;-90
2023/08/01 00:07:08;;;;;;;23.70;11.90;;;;;;;15.14;100.00;99793.44;4937406;29;20479;-90
2023/08/01 00:09:33;;;;;;;20.70;10.80;;;;;;;15.09;100.00;99806.28;4937713;29;20023;-90
2023/08/01 00:11:59;;;;;;;21.50;11.10;;;;;;;14.99;100.00;99799.28;4944835;29;20266;-90
2023/08/01 00:14:24;;;;;;;24.30;11.53;;;;;;;15.02;100.00;99804.03;4955847;28;20484;-91
2023/08/01 00:16:52;;;;;;;24.33;11.63;;;;;;;15.05;100.00;99789.13;4955224;28;20023;-89
2023/08/01 00:19:18;;;;;;;26.35;11.02;;;;;;;15.03;100.00;99791.34;4971685;28;20043;-89
2023/08/01 00:21:44;;;;;;;23.07;10.60;;;;;;;15.04;100.00;99795.63;4970783;28;20020;-90
2023/08/01 00:24:09;;;;;;;22.42;11.38;;;;;;;15.05;100.00;99797.22;4972656;28;20004;-90
2023/08/01 00:26:34;;;;;;;25.33;11.90;;;;;;;15.04;100.00;99795.63;4975897;28;20035;-90
2023/08/01 00:29:00;;;;;;;31.10;10.90;;;;;;;15.01;100.00;99794.34;4977531;28;20054;-89
2023/08/01 00:31:25;;;;;;;25.42;10.68;;;;;;;14.96;100.00;99773.72;4961998;28;20054;-89
2023/08/01 00:33:51;;;;;;;22.40;10.80;;;;;;;14.96;100.00;99773.72;4963327;28;20027;-90
2023/08/01 00:36:16;;;;;;;25.80;10.83;;;;;;;15.01;100.00;99785.47;4954495;28;20085;-90
2023/08/01 00:38:43;;;;;;;23.93;11.03;;;;;;;14.90;100.00;99776.84;4953552;28;20146;-90
2023/08/01 00:41:09;;;;;;;22.00;10.57;;;;;;;14.92;100.00;99788.94;4953079;29;20023;-90
2023/08/01 00:43:34;;;;;;;24.38;11.40;;;;;;;14.84;100.00;99779.72;4954801;28;20024;-90
2023/08/01 00:46:02;;;;;;;26.87;10.60;;;;;;;14.82;100.00;99781.09;4953680;28;20035;-90
2023/08/01 00:48:29;;;;;;;19.60;10.75;;;;;;;14.86;100.00;99790.19;4953024;28;20031;-90
2023/08/01 00:50:56;;;;;;;21.02;9.98;;;;;;;14.83;100.00;99785.41;4953998;28;20127;-90
2023/08/01 00:53:21;;;;;;;24.27;10.13;;;;;;;14.86;100.00;99781.31;4954295;28;20110;-90
2023/08/01 00:55:47;;;;;;;22.58;9.82;;;;;;;14.70;100.00;99773.59;4953265;28;20050;-90
2023/08/01 00:58:14;;;;;;;21.60;10.43;;;;;;;14.67;100.00;99783.09;4954369;28;20019;-90
2023/08/01 01:00:39;;;;;;;17.23;10.38;;;;;;;14.61;100.00;99775.44;4954204;28;20035;-91
2023/08/01 01:03:05;;;;;;;21.27;10.97;;;;;;;14.56;100.00;99781.78;4955013;28;20419;-90
2023/08/01 01:05:36;;;;;;;20.10;9.85;;;;;;;14.48;100.00;99779.81;4953508;28;20031;-90
2023/08/01 01:08:03;;;;;;;22.73;10.55;;;;;;;14.52;100.00;99791.59;4953232;28;20395;-91
2023/08/01 01:10:28;;;;;;;24.65;10.73;;;;;;;14.54;100.00;99781.28;4952700;28;20035;-91
2023/08/01 01:12:55;;;;;;;23.37;10.60;;;;;;;14.52;100.00;99776.19;4952895;28;20034;-91
2023/08/01 01:15:20;;;;;;;25.30;10.18;;;;;;;14.51;100.00;99765.75;4952879;28;20034;-91
2023/08/01 01:17:45;;;;;;;25.67;10.37;;;;;;;14.46;100.00;99766.66;4952220;28;20093;-91
2023/08/01 01:20:11;;;;;;;21.17;10.20;;;;;;;14.45;100.00;99764.28;4952644;28;20442;-90
2023/08/01 01:22:37;;;;;;;28.03;10.27;;;;;;;14.45;100.00;99765.09;4952791;28;20778;-91
2023/08/01 01:25:03;;;;;;;26.90;10.30;;;;;;;14.39;100.00;99772.50;4952522;28;20030;-91
2023/08/01 01:27:30;;;;;;;20.70;9.77;;;;;;;14.28;100.00;99765.78;4952488;28;20035;-91
2023/08/01 01:29:56;;;;;;;24.90;9.67;;;;;;;14.25;100.00;99774.47;4951912;28;20498;-90
2023/08/01 01:32:21;;;;;;;21.02;9.70;;;;;;;14.21;100.00;99770.81;4952840;28;20035;-90
2023/08/01 01:34:47;;;;;;;26.77;10.03;;;;;;;14.12;100.00;99769.97;4952213;28;20051;-90
2023/08/01 01:37:12;;;;;;;18.75;9.48;;;;;;;14.11;100.00;99773.75;4952638;28;20038;-90
2023/08/01 01:39:38;;;;;;;22.40;9.07;;;;;;;14.07;100.00;99776.28;4951508;28;20043;-91
2023/08/01 01:42:03;;;;;;;21.47;9.67;;;;;;;14.01;100.00;99772.09;4954773;28;20495;-91
2023/08/01 01:44:29;;;;;;;22.07;9.23;;;;;;;14.01;100.00;99767.53;4962888;28;20364;-91
2023/08/01 01:46:54;;;;;;;21.63;9.43;;;;;;;14.03;100.00;99769.91;4961262;28;20503;-91
2023/08/01 01:49:19;;;;;;;26.63;9.30;;;;;;;13.99;100.00;99766.22;4953226;28;20039;-91
2023/08/01 01:51:45;;;;;;;26.92;10.27;;;;;;;14.03;100.00;99776.09;4961593;28;20035;-91
2023/08/01 01:54:10;;;;;;;29.60;9.60;;;;;;;13.93;100.00;99750.22;4958510;28;20062;-91
2023/08/01 01:56:36;;;;;;;26.53;10.27;;;;;;;13.98;100.00;99768.13;4950653;28;20436;-90
2023/08/01 01:59:01;;;;;;;27.47;9.80;;;;;;;13.83;100.00;99760.44;4953047;28;20031;-90
2023/08/01 02:01:27;;;;;;;22.33;9.60;;;;;;;13.77;100.00;99752.47;4952265;28;20030;-91
2023/08/01 02:03:52;;;;;;;27.30;9.77;;;;;;;13.75;100.00;99757.34;4950900;28;20027;-91
2023/08/01 02:06:17;;;;;;;23.63;9.70;;;;;;;13.68;100.00;99761.56;4951993;28;20115;-90
2023/08/01 02:08:42;;;;;;;24.33;9.90;;;;;;;13.57;100.00;99753.75;4951911;28;20115;-91
2023/08/01 02:11:08;;;;;;;25.90;10.30;;;;;;;13.50;100.00;99737.19;4952117;28;20032;-91
2023/08/01 02:13:34;;;;;;;24.70;9.57;;;;;;;13.56;100.00;99751.34;4952028;28;20034;-91
2023/08/01 02:15:59;;;;;;;24.73;10.57;;;;;;;13.50;100.00;99750.66;4950077;28;20120;-91
2023/08/01 02:18:24;;;;;;;27.50;10.80;;;;;;;13.52;100.00;99743.09;4951217;28;20110;-90
2023/08/01 02:20:50;;;;;;;28.40;11.00;;;;;;;13.50;100.00;99753.34;4951345;28;20051;-91
2023/08/01 02:23:15;;;;;;;27.23;10.80;;;;;;;13.53;100.00;99768.09;4951928;28;20274;-91
2023/08/01 02:25:41;;;;;;;39.23;12.77;;;;;;;13.48;100.00;99759.06;4951447;28;20028;-91
2023/08/01 02:28:07;;;;;;;27.27;12.30;;;;;;;13.45;100.00;99761.53;4951738;28;20023;-90
2023/08/01 02:30:36;;;;;;;28.13;11.52;;;;;;;13.37;100.00;99746.88;4952043;28;20424;-91
2023/08/01 02:33:02;;;;;;;39.53;13.20;;;;;;;13.43;100.00;99767.22;4951917;28;20502;-92
2023/08/01 02:35:28;;;;;;;36.40;13.07;;;;;;;13.41;100.00;99755.97;4952890;28;20031;-90
2023/08/01 02:37:54;;;;;;;38.53;13.38;;;;;;;13.46;100.00;99758.56;4951948;28;20035;-91
2023/08/01 02:40:19;;;;;;;40.05;14.30;;;;;;;13.61;100.00;99775.44;4953295;28;20031;-91
2023/08/01 02:42:45;;;;;;;44.43;15.03;;;;;;;13.53;100.00;99749.25;4952537;28;20054;-91
2023/08/01 02:45:10;;;;;;;43.70;15.40;;;;;;;13.76;100.00;99785.09;4952478;28;20173;-91
2023/08/01 02:47:35;;;;;;;43.67;16.43;;;;;;;13.77;100.00;99786.69;4951009;28;20335;-91
2023/08/01 02:50:01;;;;;;;47.23;16.27;;;;;;;13.76;100.00;99777.78;4951852;28;20030;-91
2023/08/01 02:52:26;;;;;;;44.27;15.90;;;;;;;13.84;100.00;99794.31;4951817;28;20233;-90
2023/08/01 02:54:51;;;;;;;56.47;16.63;;;;;;;13.85;100.00;99783.25;4949889;29;20398;-90
2023/08/01 02:57:17;;;;;;;47.47;16.73;;;;;;;13.82;100.00;99780.38;4951124;28;20607;-91
2023/08/01 02:59:42;;;;;;;47.90;16.67;;;;;;;13.88;100.00;99779.13;4949956;28;20350;-91
2023/08/01 03:02:07;;;;;;;50.83;16.53;;;;;;;13.93;100.00;99779.84;4955056;28;20035;-91
2023/08/01 03:04:33;;;;;;;54.53;17.43;;;;;;;13.98;100.00;99788.88;4956736;28;20030;-89
2023/08/01 03:06:58;;;;;;;51.27;16.50;;;;;;;13.94;100.00;99772.53;4962632;28;20031;-90
2023/08/01 03:09:24;;;;;;;49.85;16.77;;;;;;;13.91;100.00;99767.75;4955434;28;20506;-89
2023/08/01 03:11:49;;;;;;;52.17;17.93;;;;;;;13.99;100.00;99777.00;4960088;28;20063;-90
2023/08/01 03:14:15;;;;;;;58.33;17.10;;;;;;;13.88;100.00;99766.47;4958953;28;20135;-90
2023/08/01 03:16:40;;;;;;;44.17;16.77;;;;;;;13.84;100.00;99772.78;4953158;29;20099;-91
2023/08/01 03:19:05;;;;;;;53.27;16.70;;;;;;;13.83;100.00;99771.19;4955244;28;20031;-91
2023/08/01 03:21:34;;;;;;;47.33;17.70;;;;;;;13.83;100.00;99771.97;4955371;28;20155;-91
2023/08/01 03:24:01;;;;;;;44.58;17.73;;;;;;;13.76;100.00;99766.25;4955081;28;20480;-90
2023/08/01 03:26:28;;;;;;;49.03;18.38;;;;;;;13.78;100.00;99767.50;4954269;28;20076;-91
2023/08/01 03:28:55;;;;;;;52.03;18.15;;;;;;;13.81;100.00;99776.09;4954744;28;20472;-91
2023/08/01 03:31:20;;;;;;;61.95;20.00;;;;;;;13.78;100.00;99780.19;4955003;28;20035;-90
2023/08/01 03:33:45;;;;;;;58.43;18.60;;;;;;;13.72;100.00;99766.03;4955119;28;20042;-90
2023/08/01 03:36:11;;;;;;;56.53;19.77;;;;;;;13.85;100.00;99785.16;4954794;28;20029;-91
2023/08/01 03:38:36;;;;;;;57.50;20.47;;;;;;;13.80;100.00;99769.09;4954905;28;20054;-90
2023/08/01 03:41:03;;;;;;;62.13;20.13;;;;;;;13.90;100.00;99785.00;4954987;28;20054;-91
2023/08/01 03:43:29;;;;;;;62.85;22.20;;;;;;;13.86;100.00;99776.75;4954370;28;20098;-90
2023/08/01 03:45:54;;;;;;;67.15;22.55;;;;;;;13.96;100.00;99786.50;4953994;28;20110;-90
2023/08/01 03:48:19;;;;;;;62.00;22.07;;;;;;;13.99;100.00;99791.28;4954714;28;20098;-91
2023/08/01 03:50:45;;;;;;;65.87;23.00;;;;;;;14.00;100.00;99790.16;4954462;28;20035;-91
2023/08/01 03:53:10;;;;;;;70.23;23.90;;;;;;;13.99;100.00;99785.88;4954330;28;20435;-90
2023/08/01 03:55:36;;;;;;;64.73;22.97;;;;;;;13.99;100.00;99796.66;4954123;28;20567;-90
2023/08/01 03:58:01;;;;;;;69.68;23.90;;;;;;;13.94;100.00;99786.00;4954001;28;20023;-91
2023/08/01 04:00:32;;;;;;;72.40;25.03;;;;;;;13.90;100.00;99782.31;4954661;28;20024;-91
2023/08/01 04:02:57;;;;;;;60.70;24.02;;;;;;;13.92;100.00;99790.88;4953968;28;20058;-90
2023/08/01 04:05:24;;;;;;;60.63;23.83;;;;;;;13.92;100.00;99798.97;4955446;28;20074;-90
2023/08/01 04:07:49;;;;;;;72.65;24.92;;;;;;;13.87;100.00;99791.03;4952255;28;20023;-90
2023/08/01 04:10:15;;;;;;;62.92;24.08;;;;;;;13.92;100.00;99782.81;4954202;28;20031;-91
2023/08/01 04:12:42;;;;;;;72.83;25.23;;;;;;;13.95;100.00;99786.81;4952765;28;20069;-91
2023/08/01 04:15:08;;;;;;;64.50;24.58;;;;;;;13.79;100.00;99757.53;4953924;28;20030;-90
2023/08/01 04:17:33;;;;;;;69.78;25.33;;;;;;;13.90;100.00;99782.31;4953452;28;20553;-91
2023/08/01 04:19:58;;;;;;;64.17;23.47;;;;;;;13.90;100.00;99783.13;4953662;28;20023;-91
2023/08/01 04:22:24;;;;;;;66.13;24.50;;;;;;;13.93;100.00;99792.47;4954517;28;20227;-91
2023/08/01 04:24:50;;;;;;;67.27;25.60;;;;;;;13.91;100.00;99792.81;4954477;28;20034;-92
2023/08/01 04:27:15;;;;;;;68.32;24.50;;;;;;;13.95;100.00;99787.59;4974308;28;20035;-93
2023/08/01 04:29:40;;;;;;;71.00;26.03;;;;;;;13.94;100.00;99783.31;4956637;28;20035;-92
2023/08/01 04:32:06;;;;;;;68.40;25.08;;;;;;;14.04;100.00;99780.38;4959100;28;20023;-92
2023/08/01 04:34:31;;;;;;;64.13;24.27;;;;;;;14.05;100.00;99784.66;4970850;28;20034;-92
2023/08/01 04:36:57;;;;;;;71.60;25.03;;;;;;;14.08;100.00;99781.34;4953866;28;20027;-92
2023/08/01 04:39:22;;;;;;;77.82;26.17;;;;;;;14.16;100.00;99789.78;4943367;28;20183;-93
2023/08/01 04:41:49;;;;;;;73.17;26.37;;;;;;;14.09;100.00;99780.25;4934531;29;20081;-92
2023/08/01 04:44:15;;;;;;;77.65;26.23;;;;;;;14.19;100.00;99795.34;4935335;29;20031;-92
2023/08/01 04:46:40;;;;;;;66.90;24.90;;;;;;;14.11;100.00;99782.66;4934211;29;20034;-92
2023/08/01 04:49:05;;;;;;;75.10;25.57;;;;;;;14.24;100.00;99799.84;4935270;29;20036;-93
2023/08/01 04:51:31;;;;;;;68.00;24.13;;;;;;;14.34;100.00;99806.84;4934583;29;20044;-92
2023/08/01 04:53:56;;;;;;;65.83;24.83;;;;;;;14.44;100.00;99795.03;4934533;28;20046;-92
2023/08/01 04:56:21;;;;;;;75.93;26.87;;;;;;;14.51;100.00;99811.56;4932600;29;20284;-92
2023/08/01 04:58:47;;;;;;;64.63;25.30;;;;;;;14.51;100.00;99816.94;4934506;29;20027;-94
2023/08/01 05:01:12;;;;;;;62.63;24.03;;;;;;;14.46;100.00;99815.19;4934945;28;20480;-93
2023/08/01 05:03:37;;;;;;;58.63;24.57;;;;;;;14.43;100.00;99820.38;4934402;29;20032;-94
2023/08/01 05:06:03;;;;;;;60.73;23.50;;;;;;;14.34;100.00;99810.34;4933933;28;20028;-94
2023/08/01 05:08:28;;;;;;;56.72;22.83;;;;;;;14.21;100.00;99786.97;4965375;28;20039;-92
2023/08/01 05:10:53;;;;;;;53.70;22.90;;;;;;;14.32;100.00;99809.09;4934327;29;20028;-93
2023/08/01 05:13:19;;;;;;;57.07;21.93;;;;;;;14.30;100.00;99809.38;4934241;29;20071;-92
2023/08/01 05:15:47;;;;;;;59.80;23.50;;;;;;;14.24;100.00;99803.31;4933346;29;20042;-92
2023/08/01 05:18:13;;;;;;;60.35;23.05;;;;;;;14.30;100.00;99811.28;4933922;29;20523;-91
2023/08/01 05:20:38;;;;;;;55.15;22.58;;;;;;;14.33;100.00;99814.16;4933539;29;20039;-92
2023/08/01 05:23:04;;;;;;;56.70;22.23;;;;;;;14.26;100.00;99811.09;4933827;29;20023;-93
2023/08/01 05:25:29;;;;;;;53.57;23.03;;;;;;;14.19;100.00;99794.56;4933634;29;20476;-92
2023/08/01 05:27:54;;;;;;;50.63;22.52;;;;;;;14.30;100.00;99820.16;4932232;28;20036;-92
2023/08/01 05:30:20;;;;;;;53.70;22.57;;;;;;;14.27;100.00;99817.28;4934515;28;20127;-92
2023/08/01 05:32:46;;;;;;;51.47;21.80;;;;;;;14.24;100.00;99818.72;4933801;29;20126;-92
2023/08/01 05:35:12;;;;;;;56.67;21.83;;;;;;;14.07;100.00;99798.59;4933873;29;20034;-92
2023/08/01 05:37:37;;;;;;;49.67;21.50;;;;;;;14.14;100.00;99808.16;4937149;29;20035;-92
2023/08/01 05:40:04;;;;;;;53.53;20.60;;;;;;;14.17;100.00;99824.50;4941781;29;20039;-92
2023/08/01 05:42:29;;;;;;;49.75;21.40;;;;;;;14.04;100.00;99804.63;4933800;28;20490;-92
2023/08/01 05:44:54;;;;;;;51.43;21.07;;;;;;;14.29;100.00;99829.34;4934269;28;20032;-93
2023/08/01 05:47:20;;;;;;;54.40;21.37;;;;;;;14.36;100.00;99820.81;4945971;28;20043;-92
2023/08/01 05:49:45;;;;;;;47.23;21.97;;;;;;;14.52;100.00;99813.16;4942393;29;20036;-93
2023/08/01 05:52:10;;;;;;;56.95;24.08;;;;;;;14.81;100.00;99828.06;4934816;29;20103;-93
2023/08/01 05:54:36;;;;;;;63.17;24.80;;;;;;;15.17;100.00;99816.28;4953590;29;20697;-93
2023/08/01 05:57:01;;;;;;;61.57;25.37;;;;;;;15.50;100.00;99818.59;4934822;29;20408;-93
2023/08/01 05:59:26;;;;;;;58.17;25.33;;;;;;;15.48;100.00;99818.13;4933432;29;20122;-93
2023/08/01 06:01:52;;;;;;;47.37;22.50;;;;;;;15.36;100.00;99823.31;4932963;29;20080;-93
2023/08/01 06:04:17;;;;;;;44.85;21.23;;;;;;;15.40;100.00;99832.38;4933918;29;20392;-92
2023/08/01 06:06:42;;;;;;;44.90;19.33;;;;;;;15.27;100.00;99837.59;4934709;28;20514;-91
2023/08/01 06:09:07;;;;;;;39.80;19.43;;;;;;;15.23;100.00;99819.66;4936748;29;20028;-93
2023/08/01 06:11:33;;;;;;;47.53;18.73;;;;;;;15.22;100.00;99813.44;4937015;29;20035;-92
2023/08/01 06:13:59;;;;;;;42.70;19.40;;;;;;;15.32;100.00;99809.66;4936391;29;20024;-93
2023/08/01 06:16:24;;;;;;;42.38;18.08;;;;;;;15.49;100.00;99846.72;4935109;29;20056;-93
2023/08/01 06:18:50;;;;;;;36.73;18.03;;;;;;;15.47;100.00;99846.22;4933339;29;20110;-93
2023/08/01 06:21:15;;;;;;;36.78;18.25;;;;;;;15.49;100.00;99843.19;4933824;28;20035;-93
2023/08/01 06:23:40;;;;;;;39.80;19.33;;;;;;;15.67;100.00;99835.94;4933141;29;20051;-93
2023/08/01 06:26:06;;;;;;;43.63;19.50;;;;;;;15.93;100.00;99840.56;4932886;29;20526;-94
2023/08/01 06:28:31;;;;;;;37.13;19.33;;;;;;;16.07;100.00;99857.41;4933726;29;20503;-95
2023/08/01 06:30:56;;;;;;;34.50;17.17;;;;;;;16.03;100.00;99856.47;4933126;29;20600;-94
2023/08/01 06:33:22;;;;;;;36.40;17.40;;;;;;;16.05;100.00;99838.81;4931979;29;20028;-94
2023/08/01 06:35:47;;;;;;;31.10;16.30;;;;;;;16.25;100.00;99858.19;4934192;29;20110;-93
2023/08/01 06:38:12;;;;;;;29.13;15.30;;;;;;;16.28;100.00;99852.16;4936807;29;20031;-94
2023/08/01 06:40:38;;;;;;;30.07;15.83;;;;;;;16.24;100.00;99861.25;4937381;29;20051;-94
2023/08/01 06:43:03;;;;;;;29.07;15.30;;;;;;;16.22;100.00;99852.66;4937148;29;20028;-95
2023/08/01 06:45:28;;;;;;;24.57;15.67;;;;;;;16.17;100.00;99856.28;4937339;29;20034;-94
2023/08/01 06:47:54;;;;;;;28.20;15.50;;;;;;;16.09;100.00;99857.88;4967283;28;20310;-94
2023/08/01 06:50:19;;;;;;;26.63;15.10;;;;;;;16.24;100.00;99850.44;4937265;28;20023;-94
2023/08/01 06:52:45;;;;;;;29.47;15.60;;;;;;;16.41;100.00;99861.22;4936302;29;20026;-94
2023/08/01 06:55:10;;;;;;;24.77;15.03;;;;;;;16.61;100.00;99870.53;4937034;29;20276;-93
2023/08/01 06:57:36;;;;;;;27.33;14.53;;;;;;;16.73;100.00;99867.19;4936245;29;20028;-93
2023/08/01 07:00:01;;;;;;;28.87;14.27;;;;;;;17.13;100.00;99873.44;4937302;29;20032;-93
2023/08/01 07:02:26;;;;;;;22.70;13.17;;;;;;;17.23;100.00;99881.19;4936894;29;20028;-94
2023/08/01 07:04:52;;;;;;;22.88;12.15;;;;;;;17.14;100.00;99864.19;4936910;28;20102;-93
2023/08/01 07:07:17;;;;;;;24.77;12.50;;;;;;;17.36;100.00;99880.16;4942661;29;20031;-94
2023/08/01 07:09:42;;;;;;;21.57;12.37;;;;;;;17.33;100.00;99875.41;4985190;28;20032;-94
2023/08/01 07:12:08;;;;;;;18.30;10.33;;;;;;;17.23;100.00;99892.00;4968196;28;20464;-93
2023/08/01 07:14:33;;;;;;;18.08;10.00;;;;;;;17.10;100.00;99891.09;4952043;28;20019;-94
2023/08/01 07:16:58;;;;;;;15.37;10.10;;;;;;;17.31;100.00;99891.19;4945693;29;20024;-94
2023/08/01 07:19:24;;;;;;;17.73;9.47;;;;;;;17.75;100.00;99890.94;4968060;28;20023;-95
2023/08/01 07:21:49;;;;;;;17.70;8.97;;;;;;;17.78;100.00;99893.00;4938357;29;20023;-94
2023/08/01 07:24:16;;;;;;;17.13;8.13;;;;;;;17.70;100.00;99872.97;4937094;29;20028;-94
2023/08/01 07:26:41;;;;;;;17.17;8.27;;;;;;;17.91;100.00;99880.28;4939352;29;20118;-94
2023/08/01 07:29:11;;;;;;;14.13;7.00;;;;;;;18.05;100.00;99882.00;4941452;29;20074;-95
2023/08/01 07:31:36;;;;;;;12.00;7.03;;;;;;;17.99;100.00;99855.06;4943307;29;20039;-95
2023/08/01 07:34:01;;;;;;;15.10;6.40;;;;;;;18.28;100.00;99869.66;4942726;29;20392;-93
2023/08/01 07:36:27;;;;;;;11.20;6.30;;;;;;;18.41;100.00;99885.97;4942242;29;20027;-94
2023/08/01 07:38:53;;;;;;;12.13;6.00;;;;;;;18.24;100.00;99893.16;4940867;29;20038;-94
2023/08/01 07:41:19;;;;;;;11.05;5.82;;;;;;;18.21;100.00;99896.53;4941032;29;20035;-93
2023/08/01 07:43:44;;;;;;;14.50;5.50;;;;;;;18.44;100.00;99896.16;4940427;29;20019;-95
2023/08/01 07:46:11;;;;;;;14.50;6.00;;;;;;;18.71;100.00;99899.41;4937666;29;20186;-93
2023/08/01 07:48:37;;;;;;;12.52;5.72;;;;;;;18.64;100.00;99893.72;4937469;29;20036;-96
2023/08/01 07:51:05;;;;;;;11.27;5.80;;;;;;;18.59;100.00;99897.44;4936337;29;20032;-95
2023/08/01 07:53:30;;;;;;;10.20;5.60;;;;;;;18.49;100.00;99898.66;4943613;29;20038;-94
2023/08/01 07:55:56;;;;;;;11.33;5.10;;;;;;;18.40;100.00;99898.72;4936006;29;20777;-96
2023/08/01 07:58:21;;;;;;;12.17;5.37;;;;;;;18.26;100.00;99890.88;4939891;29;20023;-95
2023/08/01 08:00:46;;;;;;;10.00;4.75;;;;;;;18.28;100.00;99896.75;4936266;29;20024;-94
2023/08/01 08:03:12;;;;;;;13.00;5.13;;;;;;;18.42;100.00;99904.63;4939025;29;20024;-94
2023/08/01 08:05:40;;;;;;;14.17;5.23;;;;;;;18.57;100.00;99895.06;4935835;29;20697;-95
2023/08/01 08:08:06;;;;;;;9.07;4.85;;;;;;;18.93;100.00;99900.91;4938545;29;20051;-94
2023/08/01 08:10:31;;;;;;;8.43;4.70;;;;;;;19.28;100.00;99903.22;4937025;29;20039;-95
2023/08/01 08:12:56;;;;;;;8.82;4.10;;;;;;;19.15;100.00;99897.03;4936048;29;20103;-94
2023/08/01 08:15:23;;;;;;;10.87;4.03;;;;;;;18.94;100.00;99897.06;4936560;29;20026;-94
2023/08/01 08:17:49;;;;;;;6.57;3.55;;;;;;;18.74;100.00;99901.44;4933984;29;20094;-94
2023/08/01 08:20:14;;;;;;;10.10;3.77;;;;;;;18.81;100.00;99909.03;4936464;29;20031;-94
2023/08/01 08:22:40;;;;;;;8.03;3.33;;;;;;;18.74;100.00;99893.31;4936811;29;20038;-95
2023/08/01 08:25:05;;;;;;;8.23;3.43;;;;;;;18.87;100.00;99919.34;4934909;29;20767;-94
2023/08/01 08:27:31;;;;;;;6.80;3.30;;;;;;;19.35;100.00;99908.13;4941140;29;20030;-94
2023/08/01 08:29:56;;;;;;;7.97;3.80;;;;;;;19.74;100.00;99911.22;4954718;29;20063;-94
2023/08/01 08:32:21;;;;;;;9.90;3.43;;;;;;;19.98;100.00;99898.75;4934877;29;20028;-94
2023/08/01 08:34:48;;;;;;;8.70;3.30;;;;;;;20.13;100.00;99905.41;4948821;29;20028;-93
2023/08/01 08:37:13;;;;;;;7.55;3.47;;;;;;;20.45;100.00;99910.16;4946398;29;20039;-93
2023/08/01 08:39:38;;;;;;;8.23;3.57;;;;;;;20.73;100.00;99915.53;4935346;29;20085;-94
2023/08/01 08:42:05;;;;;;;7.27;3.57;;;;;;;20.66;100.00;99890.88;4935661;29;20246;-94
2023/08/01 08:44:35;;;;;;;11.32;4.00;;;;;;;20.20;100.00;99902.88;4935301;29;20180;-94
2023/08/01 08:47:06;;;;;;;9.35;4.30;;;;;;;19.43;100.00;99918.06;4934880;29;20090;-92
2023/08/01 08:49:32;;;;;;;11.07;4.13;;;;;;;18.62;100.00;99930.09;4934214;29;20035;-92
2023/08/01 08:51:58;;;;;;;8.90;4.43;;;;;;;17.95;100.00;99927.28;4934443;29;20028;-92
2023/08/01 08:54:24;;;;;;;9.47;4.30;;;;;;;17.44;100.00;99931.91;4935826;29;20730;-92
2023/08/01 08:56:50;;;;;;;7.05;4.38;;;;;;;17.10;100.00;99924.38;4936915;29;20035;-92
2023/08/01 08:59:16;;;;;;;12.32;5.25;;;;;;;16.90;100.00;99941.28;4933323;29;20093;-92
2023/08/01 09:01:41;;;;;;;18.73;5.50;;;;;;;16.64;100.00;99944.81;4939479;29;20036;-91
2023/08/01 09:04:07;;;;;;;39.47;3.95;;;;;;;16.14;100.00;99925.28;4940070;29;20032;-89
2023/08/01 09:06:39;;;;;;;14.77;2.57;;;;;;;15.47;100.00;99924.50;4941139;29;20035;-88
2023/08/01 09:09:14;;;;;;;6.35;2.50;;;;;;;15.75;100.00;99937.75;4935156;29;20027;-90
2023/08/01 09:11:46;;;;;;;9.43;3.20;;;;;;;16.34;100.00;99933.88;4935755;29;20032;-91
2023/08/01 09:14:12;;;;;;;12.18;3.80;;;;;;;16.81;100.00;99931.28;4937489;29;20028;-90
2023/08/01 09:16:40;;;;;;;11.95;4.60;;;;;;;16.78;100.00;99923.81;4936563;29;20115;-91
2023/08/01 09:19:06;;;;;;;13.30;4.93;;;;;;;17.28;100.00;99918.09;4936627;29;20028;-91
2023/08/01 09:21:37;;;;;;;12.75;6.00;;;;;;;17.49;100.00;99924.38;4939362;29;20115;-92
2023/08/01 09:24:32;;;;;;;11.85;4.82;;;;;;;17.75;100.00;99941.59;4937867;29;20027;-92
2023/08/01 09:27:08;;;;;;;13.20;4.57;;;;;;;17.71;100.00;99947.66;4942792;29;20067;-92
2023/08/01 09:29:33;;;;;;;11.88;4.47;;;;;;;17.49;100.00;99932.50;4940177;29;20094;-92
2023/08/01 09:31:59;;;;;;;11.30;3.77;;;;;;;17.54;100.00;99954.00;4938410;29;20028;-93
2023/08/01 09:34:26;;;;;;;11.07;3.73;;;;;;;17.40;100.00;99953.44;4942011;29;20039;-93
2023/08/01 09:36:59;;;;;;;12.82;4.15;;;;;;;17.37;100.00;99957.56;4940324;29;20071;-94
2023/08/01 09:39:26;;;;;;;10.85;3.95;;;;;;;16.96;100.00;99945.47;4940450;29;20035;-93
2023/08/01 09:42:02;;;;;;;8.35;3.65;;;;;;;16.94;100.00;99953.06;4939052;29;20031;-94
2023/08/01 09:44:29;;;;;;;9.23;3.88;;;;;;;16.62;100.00;99947.06;4942936;29;20094;-93
2023/08/01 09:47:02;;;;;;;9.23;2.90;;;;;;;16.47;100.00;99940.25;4943103;29;20060;-92
2023/08/01 09:49:29;;;;;;;8.48;3.00;;;;;;;16.58;100.00;99962.34;4949087;29;20116;-92
2023/08/01 09:51:54;;;;;;;8.57;2.60;;;;;;;16.33;100.00;99951.22;4941876;29;20030;-91
2023/08/01 09:54:21;;;;;;;10.43;2.70;;;;;;;16.12;100.00;99967.25;4941400;29;20031;-91
2023/08/01 09:56:54;;;;;;;35.65;3.58;;;;;;;15.73;100.00;99961.56;4941241;29;20030;-90
2023/08/01 09:59:25;;;;;;;15.13;3.50;;;;;;;15.23;100.00;99954.59;4933912;29;20027;-89
2023/08/01 10:01:52;;;;;;;10.50;2.93;;;;;;;15.15;100.00;99953.44;4933515;29;20346;-90
2023/08/01 10:04:26;;;;;;;12.90;3.60;;;;;;;15.35;100.00;99956.69;4937122;29;20059;-91
2023/08/01 10:06:59;;;;;;;11.52;4.18;;;;;;;15.72;100.00;99954.59;4937121;29;20115;-92
2023/08/01 10:09:24;;;;;;;18.73;4.97;;;;;;;16.27;100.00;99958.69;4935811;29;20024;-91
2023/08/01 10:11:51;;;;;;;98.85;10.10;;;;;;;16.88;100.00;99952.44;4935615;29;20020;-92
2023/08/01 10:14:19;;;;;;;13.00;6.50;;;;;;;17.04;100.00;99971.69;4937939;29;20039;-92
2023/08/01 10:16:45;;;;;;;18.77;6.43;;;;;;;17.01;100.00;99966.91;4939644;29;20024;-91
2023/08/01 10:19:13;;;;;;;22.70;6.53;;;;;;;17.16;100.00;99981.06;4943875;29;20287;-92
2023/08/01 10:21:39;;;;;;;15.98;7.18;;;;;;;17.19;100.00;99970.38;4938943;29;20047;-92
2023/08/01 10:24:06;;;;;;;15.15;7.60;;;;;;;17.88;100.00;99978.53;4938539;29;20027;-92
2023/08/01 10:26:33;;;;;;;16.75;7.90;;;;;;;18.14;100.00;99970.25;4940567;29;20032;-92
2023/08/01 10:29:00;;;;;;;19.75;7.03;;;;;;;18.38;100.00;99957.16;4940354;29;20028;-92
2023/08/01 10:31:25;;;;;;;15.70;5.85;;;;;;;18.41;100.00;99965.41;4943075;29;20024;-90
2023/08/01 10:33:50;;;;;;;11.50;5.20;;;;;;;18.34;100.00;99969.78;4942952;29;20059;-91
2023/08/01 10:36:19;;;;;;;14.47;5.30;;;;;;;18.21;100.00;99979.75;4944190;29;20036;-92
2023/08/01 10:38:55;;;;;;;12.57;4.75;;;;;;;18.01;100.00;99966.66;4944018;29;20043;-93
2023/08/01 10:41:33;;;;;;;13.18;4.32;;;;;;;18.17;100.00;99980.41;4946861;29;20034;-93
2023/08/01 10:44:11;;;;;;;12.40;4.40;;;;;;;18.18;100.00;99986.66;4940758;29;20028;-91
2023/08/01 10:46:57;;;;;;;11.35;3.53;;;;;;;18.16;100.00;99978.03;4937675;29;20039;-93
2023/08/01 10:49:37;;;;;;;10.35;3.60;;;;;;;18.16;100.00;99983.47;4936519;29;20028;-93
2023/08/01 10:52:26;;;;;;;12.10;3.67;;;;;;;18.37;100.00;99983.47;4936336;29;20031;-93
2023/08/01 10:55:02;;;;;;;11.70;3.60;;;;;;;18.40;100.00;99992.88;4936751;29;20124;-93
2023/08/01 10:57:32;;;;;;;8.32;2.95;;;;;;;18.29;100.00;99993.25;4935560;29;20087;-94
2023/08/01 10:59:58;;;;;;;11.05;3.72;;;;;;;18.21;100.00;99972.44;4936661;29;20043;-93
2023/08/01 11:02:25;;;;;;;12.27;3.63;;;;;;;18.40;100.00;99987.44;4936385;29;20500;-92
2023/08/01 11:05:01;;;;;;;7.72;3.22;;;;;;;18.40;100.00;100003.72;4934595;29;20071;-92
2023/08/01 11:07:27;;;;;;;11.02;3.65;;;;;;;18.06;100.00;99954.06;4941140;29;20023;-93
2023/08/01 11:10:10;;;;;;;15.67;4.20;;;;;;;18.49;100.00;100009.06;4951944;29;20111;-93
2023/08/01 11:12:43;;;;;;;13.05;3.58;;;;;;;18.64;100.00;100000.34;4935980;29;20027;-93